createdAt,value
2022-12-05T00:01:19.452Z,95.10
2022-12-05T00:03:48.075Z,95.22
2022-12-05T00:06:15.252Z,94.82
2022-12-05T00:08:42.030Z,94.51
2022-12-05T00:11:26.864Z,94.51
2022-12-05T00:13:55.582Z,93.95
2022-12-05T00:16:24.692Z,94.47
2022-12-05T00:18:52.175Z,94.30
2022-12-05T00:21:25.738Z,94.78
2022-12-05T00:23:54.898Z,94.91
2022-12-05T00:26:21.809Z,95.34
2022-12-05T00:28:49.308Z,95.65
2022-12-05T00:31:19.325Z,96.56
2022-12-05T00:33:47.037Z,96.54
2022-12-05T00:36:19.994Z,95.60
2022-12-05T00:38:46.762Z,94.98
2022-12-05T00:41:15.937Z,95.54
2022-12-05T00:43:43.210Z,94.93
2022-12-05T00:46:12.775Z,95.15
2022-12-05T00:48:40.163Z,95.45
2022-12-05T00:51:10.457Z,94.91
2022-12-05T00:53:37.186Z,94.73
2022-12-05T00:56:06.322Z,95.37
2022-12-05T00:58:34.117Z,94.01
2022-12-05T01:01:09.247Z,93.20
2022-12-05T01:03:36.099Z,93.36
2022-12-05T01:06:03.703Z,93.51
2022-12-05T01:08:30.422Z,94.85
2022-12-05T01:10:58.203Z,94.86
2022-12-05T01:13:26.651Z,94.56
2022-12-05T01:15:53.661Z,95.42
2022-12-05T01:18:22.490Z,95.63
2022-12-05T01:20:49.661Z,95.04
2022-12-05T01:23:16.903Z,94.90
2022-12-05T01:25:46.516Z,94.20
2022-12-05T01:28:14.322Z,92.89
2022-12-05T01:30:43.577Z,92.62
2022-12-05T01:33:11.407Z,93.14
2022-12-05T01:35:39.717Z,93.12
2022-12-05T01:38:06.978Z,92.38
2022-12-05T01:40:34.802Z,92.03
2022-12-05T01:43:02.280Z,91.81
2022-12-05T01:45:36.661Z,91.56
2022-12-05T01:48:07.511Z,91.33
2022-12-05T01:50:35.332Z,91.80
2022-12-05T01:53:04.030Z,92.42
2022-12-05T01:55:31.222Z,92.66
2022-12-05T01:57:59.145Z,92.18
2022-12-05T02:00:26.123Z,92.54
2022-12-05T02:02:57.274Z,92.29
2022-12-05T02:05:35.512Z,92.99
2022-12-05T02:08:08.271Z,93.34
2022-12-05T02:10:40.069Z,93.31
2022-12-05T02:13:31.032Z,92.97
2022-12-05T02:16:11.915Z,92.69
2022-12-05T02:18:49.411Z,91.84
2022-12-05T02:21:31.400Z,91.43
2022-12-05T02:24:26.876Z,90.82
2022-12-05T02:26:59.615Z,91.02
2022-12-05T02:30:04.690Z,91.60
2022-12-05T02:32:40.214Z,91.85
2022-12-05T02:35:25.043Z,91.67
2022-12-05T02:38:21.003Z,91.66
2022-12-05T02:40:56.266Z,91.26
2022-12-05T02:43:42.918Z,91.87
2022-12-05T02:46:14.521Z,92.38
2022-12-05T02:48:45.324Z,92.76
2022-12-05T02:51:14.844Z,91.86
2022-12-05T02:53:44.300Z,91.10
2022-12-05T02:56:12.376Z,91.27
2022-12-05T02:58:59.353Z,92.66
2022-12-05T03:01:30.079Z,92.23
2022-12-05T03:03:59.553Z,92.47
2022-12-05T03:06:37.515Z,92.55
2022-12-05T03:09:13.026Z,92.17
2022-12-05T03:11:50.858Z,92.49
2022-12-05T03:14:23.211Z,91.97
2022-12-05T03:16:53.858Z,92.86
2022-12-05T03:19:29.083Z,93.66
2022-12-05T03:22:23.870Z,94.22
2022-12-05T03:24:51.054Z,93.22
2022-12-05T03:27:44.087Z,92.48
2022-12-05T03:30:14.392Z,91.37
2022-12-05T03:32:56.300Z,91.44
2022-12-05T03:35:30.028Z,91.93
2022-12-05T03:38:01.262Z,91.69
2022-12-05T03:40:55.991Z,91.42
2022-12-05T03:43:27.083Z,92.25
2022-12-05T03:46:18.544Z,91.93
2022-12-05T03:48:54.607Z,91.48
2022-12-05T03:51:27.489Z,91.52
2022-12-05T03:54:20.094Z,91.85
2022-12-05T03:56:54.657Z,91.27
2022-12-05T03:59:34.615Z,90.50
2022-12-05T04:02:08.764Z,89.91
2022-12-05T04:04:39.849Z,89.53
2022-12-05T04:07:08.946Z,88.85
2022-12-05T04:09:43.694Z,88.31
2022-12-05T04:12:17.539Z,87.95
2022-12-05T04:14:48.350Z,87.21
2022-12-05T04:17:21.002Z,87.13
2022-12-05T04:20:00.358Z,86.81
2022-12-05T04:22:28.086Z,86.47
2022-12-05T04:24:56.955Z,86.51
2022-12-05T04:27:34.073Z,86.34
2022-12-05T04:30:22.146Z,86.36
2022-12-05T04:33:13.635Z,85.96
2022-12-05T04:35:43.612Z,85.87
2022-12-05T04:38:39.428Z,85.63
2022-12-05T04:41:10.519Z,85.67
2022-12-05T04:43:41.879Z,85.97
2022-12-05T04:46:11.768Z,85.17
2022-12-05T04:48:40.826Z,85.37
2022-12-05T04:51:13.783Z,85.79
2022-12-05T04:53:44.053Z,85.92
2022-12-05T04:56:16.463Z,85.86
2022-12-05T04:58:43.210Z,86.22
2022-12-05T05:01:13.053Z,85.93
2022-12-05T05:03:44.886Z,85.89
2022-12-05T05:06:13.031Z,85.38
2022-12-05T05:08:48.714Z,85.97
2022-12-05T05:11:19.564Z,86.01
2022-12-05T05:13:46.749Z,85.38
2022-12-05T05:16:22.063Z,85.76
2022-12-05T05:18:49.674Z,85.27
2022-12-05T05:21:26.259Z,85.01
2022-12-05T05:23:53.428Z,85.19
2022-12-05T05:26:20.844Z,84.64
2022-12-05T05:28:50.673Z,84.64
2022-12-05T05:31:19.237Z,84.50
2022-12-05T05:40:49.356Z,84.37
2022-12-05T05:43:15.950Z,84.36
2022-12-05T05:45:42.617Z,84.74
2022-12-05T05:48:09.199Z,84.94
2022-12-05T05:50:36.721Z,84.70
2022-12-05T05:53:10.952Z,84.55
2022-12-05T05:55:41.486Z,84.14
2022-12-05T05:58:09.192Z,84.43
2022-12-05T06:00:35.902Z,84.23
2022-12-05T06:06:49.554Z,84.66
2022-12-05T06:09:21.463Z,84.33
2022-12-05T06:11:48.035Z,83.89
2022-12-05T06:14:18.497Z,83.73
2022-12-05T06:16:50.377Z,83.91
2022-12-05T06:19:16.999Z,83.79
2022-12-05T06:21:43.659Z,83.71
2022-12-05T06:24:10.235Z,84.43
2022-12-05T06:26:36.901Z,83.60
2022-12-05T06:29:03.588Z,83.66
2022-12-05T06:31:30.309Z,84.18
2022-12-05T06:34:00.617Z,83.90
2022-12-05T06:36:27.448Z,83.09
2022-12-05T06:38:54.036Z,83.90
2022-12-05T06:41:21.189Z,83.50
2022-12-05T06:43:48.175Z,83.93
2022-12-05T06:46:16.230Z,82.97
2022-12-05T06:48:43.062Z,82.78
2022-12-05T06:51:12.712Z,83.32
2022-12-05T06:53:39.700Z,83.27
2022-12-05T06:56:09.716Z,83.44
2022-12-05T06:58:36.801Z,83.88
2022-12-05T07:01:03.878Z,83.40
2022-12-05T07:03:30.530Z,83.85
2022-12-05T07:06:01.097Z,83.57
2022-12-05T07:08:27.807Z,83.46
2022-12-05T07:10:54.614Z,83.80
2022-12-05T07:13:21.454Z,83.16
2022-12-05T07:15:48.733Z,83.19
2022-12-05T07:18:16.449Z,83.56
2022-12-05T07:21:10.777Z,83.32
2022-12-05T07:23:30.767Z,83.40
2022-12-05T07:25:57.398Z,82.72
2022-12-05T07:28:24.892Z,82.75
2022-12-05T07:31:08.881Z,82.58
2022-12-05T07:33:36.614Z,82.62
2022-12-05T07:36:15.502Z,83.19
2022-12-05T07:38:42.895Z,82.97
2022-12-05T07:41:21.659Z,83.10
2022-12-05T07:43:48.420Z,82.92
2022-12-05T07:46:15.145Z,83.36
2022-12-05T07:48:41.863Z,82.65
2022-12-05T07:51:09.320Z,82.61
2022-12-05T07:53:40.225Z,82.82
2022-12-05T07:56:09.302Z,82.31
2022-12-05T07:58:36.485Z,82.77
2022-12-05T08:01:11.807Z,83.28
2022-12-05T08:03:39.065Z,83.43
2022-12-05T08:06:10.741Z,83.13
2022-12-05T08:08:38.099Z,83.19
2022-12-05T08:11:13.297Z,83.51
2022-12-05T08:13:40.492Z,83.03
2022-12-05T08:16:10.668Z,82.82
2022-12-05T08:18:37.775Z,82.68
2022-12-05T08:21:13.394Z,83.37
2022-12-05T08:23:40.678Z,83.18
2022-12-05T08:26:16.074Z,83.00
2022-12-05T08:28:44.114Z,83.26
2022-12-05T08:31:13.562Z,83.08
2022-12-05T08:33:40.895Z,82.36
2022-12-05T08:36:09.814Z,83.35
2022-12-05T08:38:36.715Z,83.33
2022-12-05T08:41:05.284Z,83.71
2022-12-05T08:43:32.588Z,83.03
2022-12-05T08:46:00.381Z,82.88
2022-12-05T08:48:29.657Z,83.14
2022-12-05T08:50:57.329Z,83.38
2022-12-05T08:53:24.644Z,82.64
2022-12-05T08:55:51.555Z,82.56
2022-12-05T08:58:18.284Z,82.73
2022-12-05T09:00:44.865Z,82.68
2022-12-05T09:03:12.276Z,82.46
2022-12-05T09:05:39.286Z,82.99
2022-12-05T09:08:06.129Z,83.91
2022-12-05T09:10:32.860Z,83.43
2022-12-05T09:12:59.632Z,83.96
2022-12-05T09:15:26.328Z,83.50
2022-12-05T09:17:53.131Z,84.08
2022-12-05T09:20:19.978Z,83.27
2022-12-05T09:22:49.761Z,83.49
2022-12-05T09:25:16.447Z,84.00
2022-12-05T09:27:43.149Z,84.42
2022-12-05T09:30:10.154Z,83.83
2022-12-05T09:32:37.425Z,83.83
2022-12-05T09:35:04.252Z,83.71
2022-12-05T09:37:39.150Z,84.21
2022-12-05T09:40:07.851Z,83.80
2022-12-05T09:42:53.197Z,83.68
2022-12-05T09:45:35.523Z,83.16
2022-12-05T09:48:11.149Z,82.49
2022-12-05T09:50:45.924Z,83.15
2022-12-05T09:53:32.342Z,82.94
2022-12-05T09:56:30.327Z,83.13
2022-12-05T09:58:59.097Z,82.93
2022-12-05T10:01:40.775Z,82.57
2022-12-05T10:04:13.649Z,82.72
2022-12-05T10:06:47.907Z,83.09
2022-12-05T10:09:36.474Z,82.72
2022-12-05T10:12:18.017Z,83.05
2022-12-05T10:15:36.107Z,82.64
2022-12-05T10:18:10.932Z,82.23
2022-12-05T10:21:06.396Z,82.24
2022-12-05T10:23:59.132Z,82.21
2022-12-05T10:26:32.459Z,82.85
2022-12-05T10:29:11.614Z,82.31
2022-12-05T10:31:39.908Z,82.97
2022-12-05T10:34:27.851Z,82.76
2022-12-05T10:37:03.022Z,82.73
2022-12-05T10:39:29.864Z,82.83
2022-12-05T10:41:56.474Z,82.33
2022-12-05T10:44:26.325Z,82.80
2022-12-05T10:46:53.143Z,82.48
2022-12-05T10:49:20.746Z,82.90
2022-12-05T10:51:48.186Z,82.99
2022-12-05T10:54:19.344Z,83.31
2022-12-05T10:56:51.889Z,82.94
2022-12-05T10:59:25.531Z,83.55
2022-12-05T11:01:55.325Z,83.46
2022-12-05T11:04:32.508Z,83.47
2022-12-05T11:07:05.171Z,82.95
2022-12-05T11:09:47.897Z,83.32
2022-12-05T11:12:20.595Z,83.23
2022-12-05T11:14:56.443Z,83.27
2022-12-05T11:17:30.373Z,83.01
2022-12-05T11:19:57.127Z,83.90
2022-12-05T11:22:36.363Z,84.06
2022-12-05T11:25:28.445Z,83.71
2022-12-05T11:28:00.991Z,83.55
2022-12-05T11:30:29.545Z,82.84
2022-12-05T11:33:11.931Z,83.57
2022-12-05T11:35:39.738Z,84.10
2022-12-05T11:38:06.979Z,83.74
2022-12-05T11:40:53.088Z,83.13
2022-12-05T11:43:47.196Z,83.21
2022-12-05T11:46:32.072Z,83.70
2022-12-05T11:49:37.930Z,84.18
2022-12-05T11:52:19.651Z,83.67
2022-12-05T11:55:07.412Z,83.33
2022-12-05T11:58:03.182Z,83.02
2022-12-05T12:00:48.128Z,84.60
2022-12-05T12:03:32.598Z,85.78
2022-12-05T12:06:32.107Z,84.74
2022-12-05T12:09:01.535Z,84.13
2022-12-05T12:11:55.378Z,83.81
2022-12-05T12:14:26.956Z,84.16
2022-12-05T12:17:02.163Z,84.03
2022-12-05T12:19:47.823Z,85.00
2022-12-05T12:22:38.699Z,84.66
2022-12-05T12:25:41.551Z,84.74
2022-12-05T12:28:29.177Z,84.32
2022-12-05T12:31:24.472Z,84.05
2022-12-05T12:34:04.228Z,83.88
2022-12-05T12:36:33.701Z,83.78
2022-12-05T12:39:28.016Z,83.82
2022-12-05T12:42:00.745Z,83.79
2022-12-05T12:44:51.847Z,84.15
2022-12-05T12:47:31.190Z,83.77
2022-12-05T12:50:00.620Z,83.69
2022-12-05T12:52:39.645Z,83.93
2022-12-05T12:55:35.307Z,83.67
2022-12-05T12:58:23.928Z,83.85
2022-12-05T13:01:09.004Z,83.24
2022-12-05T13:03:51.866Z,83.67
2022-12-05T13:06:26.886Z,83.21
2022-12-05T13:08:59.827Z,82.76
2022-12-05T13:11:33.706Z,82.75
2022-12-05T13:14:02.369Z,83.57
2022-12-05T13:16:44.018Z,83.49
2022-12-05T13:19:31.463Z,83.06
2022-12-05T13:21:59.288Z,83.33
2022-12-05T13:24:28.384Z,84.08
2022-12-05T13:27:00.218Z,83.50
2022-12-05T13:29:52.242Z,84.25
2022-12-05T13:32:29.938Z,83.98
2022-12-05T13:35:21.133Z,84.44
2022-12-05T13:37:48.729Z,84.24
2022-12-05T13:40:34.516Z,83.45
2022-12-05T13:43:03.321Z,82.65
2022-12-05T13:45:30.568Z,82.76
2022-12-05T13:47:59.980Z,82.68
2022-12-05T13:50:51.533Z,82.60
2022-12-05T13:53:42.648Z,83.13
2022-12-05T13:56:12.496Z,83.28
2022-12-05T13:58:50.070Z,82.93
2022-12-05T14:01:26.105Z,82.68
2022-12-05T14:03:59.186Z,82.93
2022-12-05T14:06:34.853Z,83.22
2022-12-05T14:09:19.517Z,82.88
2022-12-05T14:12:10.868Z,82.57
2022-12-05T14:14:55.669Z,83.43
2022-12-05T14:17:26.953Z,83.55
2022-12-05T14:19:59.731Z,83.01
2022-12-05T14:22:33.419Z,83.78
2022-12-05T14:25:18.606Z,83.16
2022-12-05T14:28:16.889Z,83.80
2022-12-05T14:31:11.693Z,83.01
2022-12-05T14:33:38.777Z,84.37
2022-12-05T14:36:16.745Z,84.25
2022-12-05T14:38:44.642Z,84.28
2022-12-05T14:41:12.986Z,83.33
2022-12-05T14:43:41.395Z,84.07
2022-12-05T14:46:25.230Z,83.86
2022-12-05T14:48:52.230Z,84.31
2022-12-05T14:51:30.770Z,84.38
2022-12-05T14:54:11.822Z,84.78
2022-12-05T14:56:52.466Z,84.36
2022-12-05T14:59:36.545Z,83.93
2022-12-05T15:02:03.927Z,84.04
2022-12-05T15:04:41.580Z,83.47
2022-12-05T15:07:12.925Z,83.72
2022-12-05T15:09:50.560Z,83.05
2022-12-05T15:12:44.532Z,83.50
2022-12-05T15:15:20.878Z,83.62
2022-12-05T15:17:55.891Z,84.23
2022-12-05T15:20:41.740Z,83.13
2022-12-05T15:23:45.848Z,83.51
2022-12-05T15:29:25.443Z,83.16
2022-12-05T15:32:04.237Z,83.24
2022-12-05T15:34:31.105Z,83.29
2022-12-05T15:37:11.174Z,83.33
2022-12-05T15:39:49.798Z,83.17
2022-12-05T15:42:16.643Z,83.05
2022-12-05T15:44:43.235Z,83.78
2022-12-05T15:47:20.610Z,83.74
2022-12-05T15:49:47.572Z,83.52
2022-12-05T15:52:33.035Z,83.94
2022-12-05T15:55:07.664Z,84.19
2022-12-05T15:57:58.704Z,83.49
2022-12-05T16:00:26.133Z,83.28
2022-12-05T16:03:00.736Z,83.02
2022-12-05T16:05:41.610Z,82.98
2022-12-05T16:08:08.932Z,82.51
2022-12-05T16:10:36.590Z,82.45
2022-12-05T16:13:14.924Z,82.56
2022-12-05T16:15:53.211Z,83.12
2022-12-05T16:18:31.431Z,82.48
2022-12-05T16:20:58.491Z,82.42
2022-12-05T16:23:30.356Z,82.88
2022-12-05T16:26:16.052Z,82.48
2022-12-05T16:28:42.735Z,82.30
2022-12-05T16:31:15.343Z,82.32
2022-12-05T16:33:43.984Z,82.46
2022-12-05T16:36:12.434Z,82.52
2022-12-05T16:38:40.162Z,82.74
2022-12-05T16:41:08.280Z,82.84
2022-12-05T16:43:34.887Z,82.61
2022-12-05T16:46:13.864Z,83.43
2022-12-05T16:49:21.087Z,82.97
2022-12-05T16:52:15.591Z,83.08
2022-12-05T16:54:45.020Z,83.48
2022-12-05T16:57:16.671Z,83.83
2022-12-05T16:59:44.080Z,83.96
2022-12-05T17:02:13.898Z,84.23
2022-12-05T17:04:41.681Z,84.06
2022-12-05T17:07:09.086Z,83.73
2022-12-05T17:09:35.866Z,84.03
2022-12-05T17:12:18.683Z,84.39
2022-12-05T17:14:46.163Z,84.11
2022-12-05T17:17:14.436Z,83.80
2022-12-05T17:19:41.140Z,85.35
2022-12-05T17:22:12.663Z,85.14
2022-12-05T17:24:39.286Z,85.64
2022-12-05T17:27:09.320Z,85.51
2022-12-05T17:29:36.141Z,84.93
2022-12-05T17:32:03.361Z,84.55
2022-12-05T17:34:30.360Z,85.51
2022-12-05T17:36:57.093Z,85.29
2022-12-05T17:39:28.394Z,84.95
2022-12-05T17:41:56.125Z,85.34
2022-12-05T17:44:22.856Z,85.22
2022-12-05T17:46:49.600Z,85.49
2022-12-05T17:49:16.600Z,84.79
2022-12-05T17:52:05.391Z,84.94
2022-12-05T17:54:30.802Z,85.09
2022-12-05T17:56:57.385Z,84.99
2022-12-05T17:59:24.066Z,85.09
2022-12-05T18:01:50.707Z,85.70
2022-12-05T18:04:22.693Z,85.75
2022-12-05T18:06:50.066Z,86.16
2022-12-05T18:09:16.773Z,86.96
2022-12-05T18:11:43.701Z,86.45
2022-12-05T18:14:10.309Z,86.31
2022-12-05T18:16:37.132Z,86.35
2022-12-05T18:19:03.871Z,86.02
2022-12-05T18:21:30.548Z,85.83
2022-12-05T18:23:57.180Z,86.11
2022-12-05T18:26:23.891Z,86.25
2022-12-05T18:28:51.458Z,85.36
2022-12-05T18:31:18.495Z,85.63
2022-12-05T18:33:46.742Z,85.21
2022-12-05T18:36:16.283Z,84.58
2022-12-05T18:38:44.003Z,84.94
2022-12-05T18:41:10.702Z,84.38
2022-12-05T18:43:37.302Z,84.34
2022-12-05T18:46:05.216Z,84.38
2022-12-05T18:48:43.725Z,84.42
2022-12-05T18:51:19.677Z,83.80
2022-12-05T18:53:48.325Z,83.76
2022-12-05T18:56:23.736Z,84.92
2022-12-05T18:59:00.224Z,84.66
2022-12-05T19:01:27.936Z,83.63
2022-12-05T19:03:56.481Z,84.46
2022-12-05T19:06:26.127Z,84.34
2022-12-05T19:08:54.715Z,84.25
2022-12-05T19:11:21.390Z,83.55
2022-12-05T19:13:48.053Z,84.63
2022-12-05T19:16:16.138Z,84.31
2022-12-05T19:18:43.237Z,84.27
2022-12-05T19:21:10.336Z,84.99
2022-12-05T19:23:37.066Z,84.80
2022-12-05T19:26:07.638Z,85.18
2022-12-05T19:28:36.642Z,84.77
2022-12-05T19:31:09.908Z,84.29
2022-12-05T19:33:41.858Z,84.33
2022-12-05T19:36:13.871Z,83.33
2022-12-05T19:38:42.839Z,83.50
2022-12-05T19:41:12.169Z,83.34
2022-12-05T19:43:39.406Z,82.95
2022-12-05T19:46:08.660Z,82.99
2022-12-05T19:48:35.568Z,82.59
2022-12-05T19:51:02.425Z,83.55
2022-12-05T19:53:31.810Z,83.38
2022-12-05T19:56:04.005Z,83.43
2022-12-05T19:58:35.968Z,83.06
2022-12-05T20:01:17.767Z,82.42
2022-12-05T20:03:48.669Z,82.83
2022-12-05T20:06:16.069Z,83.33
2022-12-05T20:08:42.868Z,83.58
2022-12-05T20:11:12.825Z,83.55
2022-12-05T20:13:48.210Z,83.50
2022-12-05T20:16:17.249Z,82.94
2022-12-05T20:18:43.920Z,83.00
2022-12-05T20:21:13.579Z,82.99
2022-12-05T20:23:40.509Z,83.00
2022-12-05T20:26:13.592Z,82.56
2022-12-05T20:28:40.844Z,82.52
2022-12-05T20:31:12.668Z,82.29
2022-12-05T20:33:39.771Z,81.83
2022-12-05T20:36:08.977Z,81.95
2022-12-05T20:38:35.932Z,82.02
2022-12-05T20:41:05.569Z,81.77
2022-12-05T20:43:32.386Z,82.41
2022-12-05T20:46:16.353Z,82.49
2022-12-05T20:48:43.882Z,82.59
2022-12-05T20:51:25.282Z,82.67
2022-12-05T20:53:52.689Z,82.53
2022-12-05T20:56:22.303Z,82.38
2022-12-05T20:58:51.464Z,82.32
2022-12-05T21:01:19.708Z,81.56
2022-12-05T21:03:49.066Z,81.85
2022-12-05T21:06:18.150Z,81.60
2022-12-05T21:08:44.818Z,81.43
2022-12-05T21:11:12.396Z,81.34
2022-12-05T21:13:39.858Z,81.55
2022-12-05T21:16:13.230Z,82.04
2022-12-05T21:18:40.640Z,81.44
2022-12-05T21:21:11.363Z,81.61
2022-12-05T21:23:38.040Z,81.36
2022-12-05T21:26:11.682Z,81.07
2022-12-05T21:28:38.836Z,81.03
2022-12-05T21:31:11.395Z,81.18
2022-12-05T21:33:38.982Z,81.29
2022-12-05T21:36:07.197Z,81.02
2022-12-05T21:38:33.990Z,81.02
2022-12-05T21:41:01.931Z,81.25
2022-12-05T21:43:29.538Z,80.71
2022-12-05T21:45:56.225Z,80.73
2022-12-05T21:48:25.546Z,80.78
2022-12-05T21:50:53.755Z,80.79
2022-12-05T21:53:21.215Z,81.01
2022-12-05T21:55:47.885Z,81.02
2022-12-05T21:58:14.706Z,81.20
2022-12-05T22:00:42.455Z,80.82
2022-12-05T22:03:13.907Z,81.06
2022-12-05T22:05:40.765Z,80.85
2022-12-05T22:08:07.419Z,81.02
2022-12-05T22:10:38.266Z,80.95
2022-12-05T22:13:05.151Z,81.37
2022-12-05T22:15:31.784Z,81.08
2022-12-05T22:17:58.424Z,81.47
2022-12-05T22:20:25.012Z,81.46
2022-12-05T22:22:51.687Z,81.31
2022-12-05T22:25:18.354Z,81.30
2022-12-05T22:27:45.036Z,81.02
2022-12-05T22:30:11.937Z,81.07
2022-12-05T22:32:38.692Z,80.95
2022-12-05T22:35:05.446Z,81.20
2022-12-05T22:37:32.098Z,81.07
2022-12-05T22:39:59.031Z,81.03
2022-12-05T22:42:26.976Z,80.69
2022-12-05T22:44:53.559Z,80.74
2022-12-05T22:47:20.682Z,81.87
2022-12-05T22:49:47.444Z,82.38
2022-12-05T22:52:14.218Z,83.25
2022-12-05T22:54:40.909Z,83.36
2022-12-05T22:57:07.548Z,83.29
2022-12-05T22:59:34.134Z,84.09
2022-12-05T23:02:00.815Z,84.49
2022-12-05T23:04:27.539Z,84.78
2022-12-05T23:06:54.217Z,85.04
2022-12-05T23:09:20.917Z,85.02
2022-12-05T23:11:49.426Z,85.87
2022-12-05T23:14:16.057Z,85.93
2022-12-05T23:16:42.804Z,85.48
2022-12-05T23:19:09.609Z,85.12
2022-12-05T23:21:39.522Z,85.40
2022-12-05T23:24:11.715Z,84.88
2022-12-05T23:26:42.013Z,85.47
2022-12-05T23:29:10.178Z,85.20
2022-12-05T23:31:36.944Z,84.80
2022-12-05T23:34:04.378Z,84.81
2022-12-05T23:36:32.595Z,84.64
2022-12-05T23:38:59.927Z,84.65
2022-12-05T23:41:26.531Z,84.41
2022-12-05T23:43:53.707Z,84.24
2022-12-05T23:46:23.885Z,83.94
2022-12-05T23:48:51.130Z,84.09
2022-12-05T23:51:23.555Z,83.48
2022-12-05T23:53:56.128Z,83.61
2022-12-05T23:56:25.697Z,83.65
2022-12-05T23:58:53.618Z,83.71
